YDRN weather

Drouin Airport
Drouin, Victoria, Australia

Public forecast

Using degrees Celsius for public forecast. Weather courtesy of forecast.io.

METAR (pilot weather report)

Closest report is Melbourne Essendon Airport, 52.6 nm (97.4 km) WNW. Retrieved 2018/12/10 01:00 UTC (14 minutes ago):

YMEN 100100Z AUTO 19014KT 9999 // SCT030 19/12 Q1019

TAF (pilot weather forecast)

Forecast is more than 12 hours old.

Closest forecast is Melbourne International Airport, 56.8 nm (105.1 km) NW. Retrieved 2018/12/09 00:33 UTC (1 day ago):

TAF YMML 092303Z 1000/1106 18014KT 9999 BKN025 BECMG 1000/1002 18015KT CAVOK BECMG 1011/1013 18010KT 9999 SCT010 BKN020 BECMG 1020/1022 14008KT CAVOK FM110200 17012KT CAVOK